Alamo, Tennessee
Current Conditions -  °F | °C
As of 6:53 PM on Monday 24 Nov 2014 (Local Time) from KMKL Reporting Station
Clear Clear  
Wind Chill: 38°   Ceiling: Unl
Heat Index: 41°   Visibility: 10mi
Dew Point: 33°   Wind: 5mph
Humidity: 73%   Direction: 210°SSW
Pressure: 29.98"   Gusts: NA
Location:  35.78°N, 89.12°W
Report Text: KMKL 250053Z 21004KT 10SM CLR 05/01 A2998 RMK AO2 SLP153 T00500006
Loading
Personal Weather Stations






























Interactive Weather Map New forecast layout! Learn more

10-Day Weather Forecast

Advertisements
Track Severe Weather on mobile